sensor_id;sensor_type;location;lat;lon;timestamp;P1;durP1;ratioP1;P2;durP2;ratioP2
23624;SDS011;11989;47.872;12.014;2023-05-14T04:44:28;35.90;;;22.77;;
23624;SDS011;11989;47.872;12.014;2023-05-14T04:46:54;39.30;;;23.50;;
23624;SDS011;11989;47.872;12.014;2023-05-14T04:49:21;36.83;;;23.85;;
23624;SDS011;11989;47.872;12.014;2023-05-14T04:51:47;36.25;;;23.88;;
23624;SDS011;11989;47.872;12.014;2023-05-14T04:54:13;33.42;;;23.95;;
23624;SDS011;11989;47.872;12.014;2023-05-14T04:56:39;34.38;;;23.15;;
23624;SDS011;11989;47.872;12.014;2023-05-14T04:59:05;38.03;;;24.95;;
23624;SDS011;11989;47.872;12.014;2023-05-14T05:01:31;32.65;;;24.50;;
23624;SDS011;11989;47.872;12.014;2023-05-14T05:03:57;38.17;;;23.45;;
23624;SDS011;11989;47.872;12.014;2023-05-14T05:06:24;34.15;;;23.63;;
23624;SDS011;11989;47.872;12.014;2023-05-14T05:08:50;35.55;;;23.35;;
23624;SDS011;11989;47.872;12.014;2023-05-14T05:11:16;34.30;;;23.63;;
23624;SDS011;11989;47.872;12.014;2023-05-14T05:13:42;40.58;;;24.40;;
23624;SDS011;11989;47.872;12.014;2023-05-14T05:16:08;35.50;;;24.70;;
23624;SDS011;11989;47.872;12.014;2023-05-14T05:18:34;32.13;;;23.38;;
23624;SDS011;11989;47.872;12.014;2023-05-14T05:21:00;37.38;;;24.38;;
23624;SDS011;11989;47.872;12.014;2023-05-14T05:23:26;37.10;;;23.17;;
23624;SDS011;11989;47.872;12.014;2023-05-14T05:25:52;33.58;;;23.15;;
23624;SDS011;11989;47.872;12.014;2023-05-14T05:28:18;29.05;;;21.85;;
23624;SDS011;11989;47.872;12.014;2023-05-14T05:30:44;31.85;;;21.92;;
23624;SDS011;11989;47.872;12.014;2023-05-14T05:33:10;30.77;;;20.10;;
23624;SDS011;11989;47.872;12.014;2023-05-14T05:35:37;23.77;;;17.58;;
23624;SDS011;11989;47.872;12.014;2023-05-14T05:38:03;27.67;;;18.38;;
23624;SDS011;11989;47.872;12.014;2023-05-14T05:40:29;27.55;;;18.27;;
23624;SDS011;11989;47.872;12.014;2023-05-14T05:42:55;25.98;;;18.15;;
23624;SDS011;11989;47.872;12.014;2023-05-14T05:45:21;30.95;;;20.33;;
23624;SDS011;11989;47.872;12.014;2023-05-14T05:47:47;33.83;;;21.17;;
23624;SDS011;11989;47.872;12.014;2023-05-14T05:50:13;31.35;;;21.15;;
23624;SDS011;11989;47.872;12.014;2023-05-14T05:52:39;30.25;;;20.20;;
23624;SDS011;11989;47.872;12.014;2023-05-14T05:55:05;28.25;;;19.27;;
23624;SDS011;11989;47.872;12.014;2023-05-14T05:57:31;26.55;;;17.55;;
23624;SDS011;11989;47.872;12.014;2023-05-14T05:59:57;29.85;;;19.67;;
23624;SDS011;11989;47.872;12.014;2023-05-14T06:02:23;28.67;;;21.20;;
23624;SDS011;11989;47.872;12.014;2023-05-14T06:04:50;28.55;;;19.88;;
23624;SDS011;11989;47.872;12.014;2023-05-14T06:07:17;27.27;;;17.58;;
23624;SDS011;11989;47.872;12.014;2023-05-14T06:09:42;21.10;;;14.02;;
23624;SDS011;11989;47.872;12.014;2023-05-14T06:12:09;17.60;;;12.32;;
23624;SDS011;11989;47.872;12.014;2023-05-14T06:14:35;15.75;;;11.15;;
23624;SDS011;11989;47.872;12.014;2023-05-14T06:17:01;14.43;;;10.63;;
23624;SDS011;11989;47.872;12.014;2023-05-14T06:19:27;18.92;;;13.52;;
23624;SDS011;11989;47.872;12.014;2023-05-14T06:21:53;26.50;;;17.60;;
23624;SDS011;11989;47.872;12.014;2023-05-14T06:24:19;32.08;;;20.95;;
23624;SDS011;11989;47.872;12.014;2023-05-14T06:26:45;28.90;;;19.48;;
23624;SDS011;11989;47.872;12.014;2023-05-14T06:29:13;28.15;;;19.08;;
23624;SDS011;11989;47.872;12.014;2023-05-14T06:31:39;25.73;;;18.85;;
23624;SDS011;11989;47.872;12.014;2023-05-14T06:34:05;26.95;;;21.02;;
23624;SDS011;11989;47.872;12.014;2023-05-14T06:36:32;27.27;;;19.10;;
23624;SDS011;11989;47.872;12.014;2023-05-14T06:38:58;26.90;;;20.83;;
23624;SDS011;11989;47.872;12.014;2023-05-14T06:41:24;30.67;;;20.05;;
23624;SDS011;11989;47.872;12.014;2023-05-14T06:43:50;30.40;;;22.67;;
23624;SDS011;11989;47.872;12.014;2023-05-14T06:46:16;30.08;;;20.30;;
23624;SDS011;11989;47.872;12.014;2023-05-14T06:48:42;33.72;;;23.02;;
23624;SDS011;11989;47.872;12.014;2023-05-14T06:51:08;41.60;;;35.72;;
23624;SDS011;11989;47.872;12.014;2023-05-14T06:53:34;42.05;;;37.20;;
23624;SDS011;11989;47.872;12.014;2023-05-14T06:56:00;33.85;;;29.45;;
23624;SDS011;11989;47.872;12.014;2023-05-14T06:58:26;28.80;;;21.52;;
23624;SDS011;11989;47.872;12.014;2023-05-14T07:00:52;29.65;;;26.45;;
23624;SDS011;11989;47.872;12.014;2023-05-14T07:03:18;23.48;;;18.85;;
23624;SDS011;11989;47.872;12.014;2023-05-14T07:05:46;21.80;;;17.65;;
23624;SDS011;11989;47.872;12.014;2023-05-14T07:08:12;22.40;;;17.25;;
23624;SDS011;11989;47.872;12.014;2023-05-14T07:10:38;24.17;;;16.55;;
23624;SDS011;11989;47.872;12.014;2023-05-14T07:13:04;21.65;;;16.75;;
23624;SDS011;11989;47.872;12.014;2023-05-14T07:15:30;22.27;;;16.23;;
23624;SDS011;11989;47.872;12.014;2023-05-14T07:17:56;24.63;;;17.33;;
23624;SDS011;11989;47.872;12.014;2023-05-14T07:20:22;27.23;;;15.80;;
23624;SDS011;11989;47.872;12.014;2023-05-14T07:22:48;24.20;;;17.30;;
23624;SDS011;11989;47.872;12.014;2023-05-14T07:25:14;24.20;;;16.75;;
23624;SDS011;11989;47.872;12.014;2023-05-14T07:27:40;23.88;;;18.00;;
23624;SDS011;11989;47.872;12.014;2023-05-14T07:30:07;23.55;;;17.27;;
23624;SDS011;11989;47.872;12.014;2023-05-14T07:32:33;25.30;;;17.98;;
23624;SDS011;11989;47.872;12.014;2023-05-14T07:34:59;23.73;;;17.55;;
23624;SDS011;11989;47.872;12.014;2023-05-14T07:37:25;23.73;;;17.15;;
23624;SDS011;11989;47.872;12.014;2023-05-14T07:39:51;28.65;;;19.20;;
23624;SDS011;11989;47.872;12.014;2023-05-14T07:42:17;24.30;;;18.58;;
23624;SDS011;11989;47.872;12.014;2023-05-14T07:44:44;27.45;;;19.77;;
23624;SDS011;11989;47.872;12.014;2023-05-14T07:47:10;28.77;;;20.13;;
23624;SDS011;11989;47.872;12.014;2023-05-14T07:49:36;26.92;;;20.05;;
23624;SDS011;11989;47.872;12.014;2023-05-14T07:52:02;29.73;;;20.02;;
23624;SDS011;11989;47.872;12.014;2023-05-14T07:54:28;29.15;;;20.02;;
23624;SDS011;11989;47.872;12.014;2023-05-14T07:56:54;27.75;;;19.42;;
23624;SDS011;11989;47.872;12.014;2023-05-14T07:59:20;30.98;;;19.58;;
23624;SDS011;11989;47.872;12.014;2023-05-14T08:01:46;30.17;;;20.75;;
23624;SDS011;11989;47.872;12.014;2023-05-14T08:04:12;30.55;;;20.95;;
23624;SDS011;11989;47.872;12.014;2023-05-14T08:06:40;30.02;;;19.02;;
23624;SDS011;11989;47.872;12.014;2023-05-14T08:09:06;26.25;;;18.23;;
23624;SDS011;11989;47.872;12.014;2023-05-14T08:11:32;29.10;;;19.20;;
23624;SDS011;11989;47.872;12.014;2023-05-14T08:13:58;29.65;;;19.02;;
23624;SDS011;11989;47.872;12.014;2023-05-14T08:16:24;27.60;;;18.30;;
23624;SDS011;11989;47.872;12.014;2023-05-14T08:18:51;24.85;;;18.63;;
23624;SDS011;11989;47.872;12.014;2023-05-14T08:21:17;26.65;;;17.73;;
23624;SDS011;11989;47.872;12.014;2023-05-14T08:23:43;26.00;;;18.30;;
23624;SDS011;11989;47.872;12.014;2023-05-14T08:26:09;27.25;;;19.27;;
23624;SDS011;11989;47.872;12.014;2023-05-14T08:28:35;24.58;;;16.90;;
23624;SDS011;11989;47.872;12.014;2023-05-14T08:31:01;26.08;;;18.63;;
23624;SDS011;11989;47.872;12.014;2023-05-14T08:33:27;24.30;;;17.35;;
23624;SDS011;11989;47.872;12.014;2023-05-14T08:35:53;26.33;;;17.52;;
23624;SDS011;11989;47.872;12.014;2023-05-14T08:38:20;23.90;;;16.17;;
23624;SDS011;11989;47.872;12.014;2023-05-14T08:40:51;24.10;;;16.65;;
23624;SDS011;11989;47.872;12.014;2023-05-14T08:43:19;24.40;;;17.50;;
23624;SDS011;11989;47.872;12.014;2023-05-14T08:45:48;21.27;;;16.00;;
23624;SDS011;11989;47.872;12.014;2023-05-14T08:48:14;20.42;;;15.25;;
23624;SDS011;11989;47.872;12.014;2023-05-14T08:50:41;21.73;;;16.33;;
23624;SDS011;11989;47.872;12.014;2023-05-14T08:53:07;19.30;;;14.75;;
23624;SDS011;11989;47.872;12.014;2023-05-14T08:55:33;19.98;;;15.68;;
23624;SDS011;11989;47.872;12.014;2023-05-14T08:58:00;19.77;;;15.27;;
23624;SDS011;11989;47.872;12.014;2023-05-14T09:00:26;22.33;;;16.15;;
23624;SDS011;11989;47.872;12.014;2023-05-14T09:02:52;22.35;;;15.38;;
23624;SDS011;11989;47.872;12.014;2023-05-14T09:05:18;19.60;;;14.65;;
23624;SDS011;11989;47.872;12.014;2023-05-14T09:07:45;17.27;;;13.32;;
23624;SDS011;11989;47.872;12.014;2023-05-14T09:10:11;19.35;;;13.85;;
23624;SDS011;11989;47.872;12.014;2023-05-14T09:12:39;18.00;;;13.38;;
23624;SDS011;11989;47.872;12.014;2023-05-14T09:15:05;17.00;;;13.73;;
23624;SDS011;11989;47.872;12.014;2023-05-14T09:17:32;17.98;;;12.88;;
23624;SDS011;11989;47.872;12.014;2023-05-14T09:19:58;17.42;;;12.13;;
23624;SDS011;11989;47.872;12.014;2023-05-14T09:22:24;18.88;;;12.85;;
23624;SDS011;11989;47.872;12.014;2023-05-14T09:27:28;17.67;;;13.38;;
23624;SDS011;11989;47.872;12.014;2023-05-14T09:29:55;18.50;;;12.65;;
23624;SDS011;11989;47.872;12.014;2023-05-14T09:32:33;17.38;;;12.88;;
23624;SDS011;11989;47.872;12.014;2023-05-14T09:35:07;17.67;;;12.00;;
23624;SDS011;11989;47.872;12.014;2023-05-14T09:37:35;16.33;;;11.65;;
23624;SDS011;11989;47.872;12.014;2023-05-14T09:40:05;15.07;;;11.63;;
23624;SDS011;11989;47.872;12.014;2023-05-14T09:42:31;16.35;;;12.20;;
23624;SDS011;11989;47.872;12.014;2023-05-14T09:44:57;15.77;;;11.80;;
23624;SDS011;11989;47.872;12.014;2023-05-14T09:47:23;15.95;;;12.27;;
23624;SDS011;11989;47.872;12.014;2023-05-14T09:49:51;17.38;;;12.10;;
23624;SDS011;11989;47.872;12.014;2023-05-14T09:52:19;16.75;;;12.55;;
23624;SDS011;11989;47.872;12.014;2023-05-14T09:54:45;17.10;;;12.68;;
23624;SDS011;11989;47.872;12.014;2023-05-14T09:57:11;16.52;;;13.80;;
23624;SDS011;11989;47.872;12.014;2023-05-14T09:59:37;15.68;;;11.65;;
23624;SDS011;11989;47.872;12.014;2023-05-14T10:02:03;15.90;;;12.82;;
23624;SDS011;11989;47.872;12.014;2023-05-14T10:04:31;19.67;;;13.73;;
23624;SDS011;11989;47.872;12.014;2023-05-14T10:06:57;15.05;;;12.55;;
23624;SDS011;11989;47.872;12.014;2023-05-14T10:09:24;16.52;;;12.27;;
23624;SDS011;11989;47.872;12.014;2023-05-14T10:11:52;15.65;;;12.52;;
23624;SDS011;11989;47.872;12.014;2023-05-14T10:17:03;16.02;;;13.10;;
23624;SDS011;11989;47.872;12.014;2023-05-14T10:19:32;16.35;;;12.68;;
23624;SDS011;11989;47.872;12.014;2023-05-14T10:22:04;15.18;;;12.30;;
23624;SDS011;11989;47.872;12.014;2023-05-14T10:24:31;17.07;;;12.87;;
23624;SDS011;11989;47.872;12.014;2023-05-14T10:26:58;15.65;;;11.55;;
23624;SDS011;11989;47.872;12.014;2023-05-14T10:29:32;15.40;;;12.00;;
23624;SDS011;11989;47.872;12.014;2023-05-14T10:31:58;16.92;;;12.98;;
23624;SDS011;11989;47.872;12.014;2023-05-14T10:34:38;17.30;;;12.95;;
23624;SDS011;11989;47.872;12.014;2023-05-14T10:37:11;16.55;;;12.30;;
23624;SDS011;11989;47.872;12.014;2023-05-14T10:39:43;16.50;;;11.85;;
23624;SDS011;11989;47.872;12.014;2023-05-14T10:42:15;16.88;;;11.90;;
23624;SDS011;11989;47.872;12.014;2023-05-14T10:44:47;16.95;;;12.35;;
23624;SDS011;11989;47.872;12.014;2023-05-14T10:47:14;15.65;;;11.60;;
23624;SDS011;11989;47.872;12.014;2023-05-14T10:49:44;16.40;;;13.32;;
23624;SDS011;11989;47.872;12.014;2023-05-14T10:52:14;15.88;;;12.43;;
23624;SDS011;11989;47.872;12.014;2023-05-14T10:54:44;17.75;;;14.00;;
23624;SDS011;11989;47.872;12.014;2023-05-14T10:57:11;17.08;;;12.35;;
23624;SDS011;11989;47.872;12.014;2023-05-14T10:59:39;17.85;;;12.90;;
23624;SDS011;11989;47.872;12.014;2023-05-14T11:02:15;20.25;;;14.50;;
23624;SDS011;11989;47.872;12.014;2023-05-14T11:04:49;18.35;;;13.77;;
23624;SDS011;11989;47.872;12.014;2023-05-14T11:07:17;19.52;;;13.90;;
23624;SDS011;11989;47.872;12.014;2023-05-14T11:09:44;15.90;;;12.27;;
23624;SDS011;11989;47.872;12.014;2023-05-14T11:12:11;16.55;;;12.88;;
23624;SDS011;11989;47.872;12.014;2023-05-14T11:14:38;14.68;;;11.77;;
23624;SDS011;11989;47.872;12.014;2023-05-14T11:17:04;15.63;;;11.75;;
23624;SDS011;11989;47.872;12.014;2023-05-14T11:19:30;14.80;;;11.85;;
23624;SDS011;11989;47.872;12.014;2023-05-14T11:21:56;14.35;;;11.45;;
23624;SDS011;11989;47.872;12.014;2023-05-14T11:24:22;15.65;;;11.25;;
23624;SDS011;11989;47.872;12.014;2023-05-14T11:26:48;12.85;;;10.70;;
23624;SDS011;11989;47.872;12.014;2023-05-14T11:29:14;13.82;;;10.35;;
23624;SDS011;11989;47.872;12.014;2023-05-14T11:31:40;12.55;;;9.75;;
23624;SDS011;11989;47.872;12.014;2023-05-14T11:34:06;12.85;;;10.23;;
23624;SDS011;11989;47.872;12.014;2023-05-14T11:36:34;12.32;;;8.98;;
23624;SDS011;11989;47.872;12.014;2023-05-14T11:39:01;14.52;;;12.27;;
23624;SDS011;11989;47.872;12.014;2023-05-14T11:41:27;12.00;;;9.32;;
23624;SDS011;11989;47.872;12.014;2023-05-14T11:43:54;10.90;;;8.65;;
23624;SDS011;11989;47.872;12.014;2023-05-14T11:46:21;10.38;;;8.23;;
23624;SDS011;11989;47.872;12.014;2023-05-14T11:48:47;11.10;;;8.85;;
23624;SDS011;11989;47.872;12.014;2023-05-14T11:51:13;12.48;;;11.07;;
23624;SDS011;11989;47.872;12.014;2023-05-14T11:53:39;11.63;;;9.52;;
23624;SDS011;11989;47.872;12.014;2023-05-14T11:56:06;11.07;;;9.13;;
23624;SDS011;11989;47.872;12.014;2023-05-14T11:58:32;14.65;;;11.85;;
23624;SDS011;11989;47.872;12.014;2023-05-14T12:00:58;11.35;;;9.93;;
23624;SDS011;11989;47.872;12.014;2023-05-14T12:03:24;14.10;;;10.23;;
23624;SDS011;11989;47.872;12.014;2023-05-14T12:05:53;10.43;;;8.40;;
23624;SDS011;11989;47.872;12.014;2023-05-14T12:08:20;10.98;;;8.60;;
23624;SDS011;11989;47.872;12.014;2023-05-14T12:10:46;8.57;;;7.15;;
23624;SDS011;11989;47.872;12.014;2023-05-14T12:13:15;11.88;;;8.27;;
23624;SDS011;11989;47.872;12.014;2023-05-14T12:15:55;10.95;;;9.15;;
23624;SDS011;11989;47.872;12.014;2023-05-14T12:18:21;9.95;;;7.75;;
23624;SDS011;11989;47.872;12.014;2023-05-14T12:20:49;12.93;;;11.25;;
23624;SDS011;11989;47.872;12.014;2023-05-14T12:23:30;11.32;;;9.00;;
23624;SDS011;11989;47.872;12.014;2023-05-14T12:26:03;9.38;;;7.50;;
23624;SDS011;11989;47.872;12.014;2023-05-14T12:28:30;9.48;;;7.57;;
23624;SDS011;11989;47.872;12.014;2023-05-14T12:30:56;11.18;;;8.45;;
23624;SDS011;11989;47.872;12.014;2023-05-14T12:33:23;12.32;;;9.75;;
23624;SDS011;11989;47.872;12.014;2023-05-14T12:35:50;10.63;;;8.85;;
23624;SDS011;11989;47.872;12.014;2023-05-14T12:38:17;9.90;;;8.02;;
23624;SDS011;11989;47.872;12.014;2023-05-14T12:40:43;10.18;;;7.35;;
23624;SDS011;11989;47.872;12.014;2023-05-14T12:43:09;8.18;;;7.30;;
23624;SDS011;11989;47.872;12.014;2023-05-14T12:45:35;9.00;;;7.10;;
23624;SDS011;11989;47.872;12.014;2023-05-14T12:48:02;9.25;;;6.85;;
23624;SDS011;11989;47.872;12.014;2023-05-14T12:50:28;9.40;;;6.75;;
23624;SDS011;11989;47.872;12.014;2023-05-14T12:52:54;10.50;;;8.45;;
23624;SDS011;11989;47.872;12.014;2023-05-14T12:55:20;9.88;;;7.97;;
23624;SDS011;11989;47.872;12.014;2023-05-14T12:57:46;9.68;;;7.00;;
23624;SDS011;11989;47.872;12.014;2023-05-14T13:00:12;8.60;;;6.90;;
23624;SDS011;11989;47.872;12.014;2023-05-14T13:02:38;9.27;;;7.07;;
23624;SDS011;11989;47.872;12.014;2023-05-14T13:05:04;9.30;;;7.40;;
23624;SDS011;11989;47.872;12.014;2023-05-14T13:07:30;9.15;;;7.68;;
23624;SDS011;11989;47.872;12.014;2023-05-14T13:09:56;11.40;;;8.60;;
23624;SDS011;11989;47.872;12.014;2023-05-14T13:12:22;9.93;;;7.60;;
23624;SDS011;11989;47.872;12.014;2023-05-14T13:14:49;10.57;;;8.38;;
23624;SDS011;11989;47.872;12.014;2023-05-14T13:17:15;9.60;;;6.72;;
23624;SDS011;11989;47.872;12.014;2023-05-14T13:19:41;10.23;;;7.43;;
23624;SDS011;11989;47.872;12.014;2023-05-14T13:22:07;8.98;;;7.20;;
23624;SDS011;11989;47.872;12.014;2023-05-14T13:24:33;8.00;;;6.43;;
23624;SDS011;11989;47.872;12.014;2023-05-14T13:26:59;7.72;;;6.38;;
23624;SDS011;11989;47.872;12.014;2023-05-14T13:29:25;8.43;;;6.32;;
23624;SDS011;11989;47.872;12.014;2023-05-14T13:31:53;7.70;;;5.80;;
23624;SDS011;11989;47.872;12.014;2023-05-14T13:34:19;8.77;;;6.88;;
23624;SDS011;11989;47.872;12.014;2023-05-14T13:36:45;6.68;;;5.55;;
23624;SDS011;11989;47.872;12.014;2023-05-14T13:39:13;6.53;;;5.20;;
23624;SDS011;11989;47.872;12.014;2023-05-14T13:41:39;19.92;;;16.55;;
23624;SDS011;11989;47.872;12.014;2023-05-14T13:44:05;10.30;;;7.22;;
23624;SDS011;11989;47.872;12.014;2023-05-14T13:46:32;7.38;;;5.80;;
23624;SDS011;11989;47.872;12.014;2023-05-14T13:48:57;10.80;;;6.57;;
23624;SDS011;11989;47.872;12.014;2023-05-14T13:51:24;7.38;;;5.70;;
23624;SDS011;11989;47.872;12.014;2023-05-14T13:53:50;7.30;;;5.53;;
23624;SDS011;11989;47.872;12.014;2023-05-14T13:56:16;9.45;;;7.38;;
23624;SDS011;11989;47.872;12.014;2023-05-14T13:58:42;7.75;;;6.43;;
23624;SDS011;11989;47.872;12.014;2023-05-14T14:01:08;8.00;;;6.05;;
23624;SDS011;11989;47.872;12.014;2023-05-14T14:03:34;6.30;;;5.05;;
23624;SDS011;11989;47.872;12.014;2023-05-14T14:05:59;7.53;;;4.68;;
23624;SDS011;11989;47.872;12.014;2023-05-14T14:08:26;6.32;;;5.00;;
23624;SDS011;11989;47.872;12.014;2023-05-14T14:10:52;9.65;;;6.82;;
23624;SDS011;11989;47.872;12.014;2023-05-14T14:13:19;11.30;;;9.05;;
23624;SDS011;11989;47.872;12.014;2023-05-14T14:15:46;7.13;;;5.20;;
23624;SDS011;11989;47.872;12.014;2023-05-14T14:18:12;6.25;;;5.18;;
23624;SDS011;11989;47.872;12.014;2023-05-14T14:20:38;8.27;;;5.65;;
23624;SDS011;11989;47.872;12.014;2023-05-14T14:23:04;7.93;;;5.97;;
23624;SDS011;11989;47.872;12.014;2023-05-14T14:25:30;7.22;;;5.68;;
23624;SDS011;11989;47.872;12.014;2023-05-14T14:27:56;7.00;;;5.93;;
23624;SDS011;11989;47.872;12.014;2023-05-14T14:30:22;7.68;;;5.10;;
23624;SDS011;11989;47.872;12.014;2023-05-14T14:32:49;7.35;;;4.45;;
23624;SDS011;11989;47.872;12.014;2023-05-14T14:35:17;6.15;;;4.63;;
23624;SDS011;11989;47.872;12.014;2023-05-14T14:37:43;6.10;;;4.93;;
23624;SDS011;11989;47.872;12.014;2023-05-14T14:40:13;6.15;;;4.03;;
23624;SDS011;11989;47.872;12.014;2023-05-14T14:42:39;5.40;;;3.70;;
23624;SDS011;11989;47.872;12.014;2023-05-14T14:45:07;7.35;;;4.55;;
23624;SDS011;11989;47.872;12.014;2023-05-14T14:47:33;5.97;;;3.83;;
23624;SDS011;11989;47.872;12.014;2023-05-14T14:49:59;5.28;;;3.40;;
23624;SDS011;11989;47.872;12.014;2023-05-14T14:52:25;6.03;;;4.47;;
23624;SDS011;11989;47.872;12.014;2023-05-14T14:54:52;6.07;;;4.25;;
23624;SDS011;11989;47.872;12.014;2023-05-14T14:57:18;6.28;;;4.40;;
23624;SDS011;11989;47.872;12.014;2023-05-14T14:59:45;5.97;;;3.83;;
23624;SDS011;11989;47.872;12.014;2023-05-14T15:02:11;6.13;;;4.03;;
23624;SDS011;11989;47.872;12.014;2023-05-14T15:04:37;5.32;;;3.88;;
23624;SDS011;11989;47.872;12.014;2023-05-14T15:07:04;5.75;;;4.20;;
23624;SDS011;11989;47.872;12.014;2023-05-14T15:09:30;5.30;;;4.25;;
23624;SDS011;11989;47.872;12.014;2023-05-14T15:11:56;5.90;;;4.40;;
23624;SDS011;11989;47.872;12.014;2023-05-14T15:14:22;5.75;;;4.30;;
23624;SDS011;11989;47.872;12.014;2023-05-14T15:16:48;5.55;;;3.83;;
23624;SDS011;11989;47.872;12.014;2023-05-14T15:19:14;5.78;;;4.50;;
23624;SDS011;11989;47.872;12.014;2023-05-14T15:21:41;5.38;;;3.83;;
23624;SDS011;11989;47.872;12.014;2023-05-14T15:24:09;8.52;;;5.82;;
23624;SDS011;11989;47.872;12.014;2023-05-14T15:26:36;5.53;;;3.97;;
23624;SDS011;11989;47.872;12.014;2023-05-14T15:29:02;7.53;;;4.35;;
23624;SDS011;11989;47.872;12.014;2023-05-14T15:31:29;5.90;;;4.20;;
23624;SDS011;11989;47.872;12.014;2023-05-14T15:33:55;5.30;;;3.70;;
23624;SDS011;11989;47.872;12.014;2023-05-14T15:36:21;6.57;;;4.22;;
23624;SDS011;11989;47.872;12.014;2023-05-14T15:38:48;5.97;;;3.80;;
23624;SDS011;11989;47.872;12.014;2023-05-14T15:41:14;6.88;;;3.50;;
23624;SDS011;11989;47.872;12.014;2023-05-14T15:43:40;5.10;;;3.72;;
23624;SDS011;11989;47.872;12.014;2023-05-14T15:46:06;6.10;;;3.65;;
23624;SDS011;11989;47.872;12.014;2023-05-14T15:48:32;5.63;;;3.60;;
23624;SDS011;11989;47.872;12.014;2023-05-14T15:50:58;7.50;;;4.45;;
23624;SDS011;11989;47.872;12.014;2023-05-14T15:53:24;5.55;;;3.80;;
23624;SDS011;11989;47.872;12.014;2023-05-14T15:55:50;5.97;;;4.32;;
23624;SDS011;11989;47.872;12.014;2023-05-14T15:58:16;8.02;;;4.50;;
23624;SDS011;11989;47.872;12.014;2023-05-14T16:00:42;4.60;;;3.20;;
23624;SDS011;11989;47.872;12.014;2023-05-14T16:03:08;6.18;;;4.47;;
23624;SDS011;11989;47.872;12.014;2023-05-14T16:05:36;5.85;;;4.10;;
23624;SDS011;11989;47.872;12.014;2023-05-14T16:08:02;5.35;;;3.47;;
23624;SDS011;11989;47.872;12.014;2023-05-14T16:10:28;6.10;;;4.45;;
23624;SDS011;11989;47.872;12.014;2023-05-14T16:12:54;6.57;;;4.43;;
23624;SDS011;11989;47.872;12.014;2023-05-14T16:15:20;7.93;;;5.30;;
23624;SDS011;11989;47.872;12.014;2023-05-14T16:17:46;7.47;;;5.57;;
23624;SDS011;11989;47.872;12.014;2023-05-14T16:20:12;6.13;;;4.00;;
23624;SDS011;11989;47.872;12.014;2023-05-14T16:22:38;5.65;;;4.10;;
23624;SDS011;11989;47.872;12.014;2023-05-14T16:25:04;5.55;;;3.90;;
23624;SDS011;11989;47.872;12.014;2023-05-14T16:27:30;5.57;;;3.55;;
23624;SDS011;11989;47.872;12.014;2023-05-14T16:29:56;5.07;;;3.13;;
23624;SDS011;11989;47.872;12.014;2023-05-14T16:32:22;7.35;;;5.63;;
23624;SDS011;11989;47.872;12.014;2023-05-14T16:34:49;104.22;;;50.25;;
23624;SDS011;11989;47.872;12.014;2023-05-14T16:37:15;139.05;;;80.63;;
23624;SDS011;11989;47.872;12.014;2023-05-14T16:39:43;41.30;;;25.58;;
23624;SDS011;11989;47.872;12.014;2023-05-14T16:42:09;8.93;;;6.10;;
23624;SDS011;11989;47.872;12.014;2023-05-14T16:44:35;11.88;;;7.13;;
23624;SDS011;11989;47.872;12.014;2023-05-14T16:47:01;8.57;;;5.95;;
23624;SDS011;11989;47.872;12.014;2023-05-14T16:49:27;7.20;;;4.03;;
23624;SDS011;11989;47.872;12.014;2023-05-14T16:51:53;6.10;;;3.90;;
23624;SDS011;11989;47.872;12.014;2023-05-14T16:54:19;4.82;;;3.75;;
23624;SDS011;11989;47.872;12.014;2023-05-14T16:56:45;6.55;;;3.75;;
23624;SDS011;11989;47.872;12.014;2023-05-14T16:59:12;6.78;;;4.00;;
23624;SDS011;11989;47.872;12.014;2023-05-14T17:01:39;5.40;;;3.90;;
23624;SDS011;11989;47.872;12.014;2023-05-14T17:04:05;5.50;;;3.80;;
23624;SDS011;11989;47.872;12.014;2023-05-14T17:06:32;6.35;;;4.88;;
23624;SDS011;11989;47.872;12.014;2023-05-14T17:08:58;9.15;;;5.45;;
23624;SDS011;11989;47.872;12.014;2023-05-14T17:11:24;7.15;;;5.65;;
23624;SDS011;11989;47.872;12.014;2023-05-14T17:13:52;7.43;;;5.93;;
23624;SDS011;11989;47.872;12.014;2023-05-14T17:16:18;7.22;;;5.60;;
23624;SDS011;11989;47.872;12.014;2023-05-14T17:18:45;6.63;;;5.35;;
23624;SDS011;11989;47.872;12.014;2023-05-14T17:21:12;18.05;;;15.52;;
23624;SDS011;11989;47.872;12.014;2023-05-14T17:23:38;19.25;;;15.07;;
23624;SDS011;11989;47.872;12.014;2023-05-14T17:26:06;11.27;;;8.35;;
23624;SDS011;11989;47.872;12.014;2023-05-14T17:28:32;9.68;;;6.75;;
23624;SDS011;11989;47.872;12.014;2023-05-14T17:30:58;6.15;;;5.43;;
23624;SDS011;11989;47.872;12.014;2023-05-14T17:33:24;7.57;;;6.32;;
23624;SDS011;11989;47.872;12.014;2023-05-14T17:35:50;7.47;;;6.03;;
23624;SDS011;11989;47.872;12.014;2023-05-14T17:38:16;7.68;;;5.97;;
23624;SDS011;11989;47.872;12.014;2023-05-14T17:40:42;7.80;;;5.95;;
23624;SDS011;11989;47.872;12.014;2023-05-14T17:43:08;8.18;;;5.97;;
23624;SDS011;11989;47.872;12.014;2023-05-14T17:45:34;8.23;;;6.25;;
23624;SDS011;11989;47.872;12.014;2023-05-14T17:48:00;39.35;;;30.80;;
23624;SDS011;11989;47.872;12.014;2023-05-14T17:50:26;18.50;;;13.75;;
23624;SDS011;11989;47.872;12.014;2023-05-14T17:52:52;18.92;;;13.55;;
23624;SDS011;11989;47.872;12.014;2023-05-14T17:55:18;18.63;;;12.75;;
23624;SDS011;11989;47.872;12.014;2023-05-14T17:57:44;10.23;;;8.00;;
23624;SDS011;11989;47.872;12.014;2023-05-14T18:00:10;8.25;;;5.78;;
23624;SDS011;11989;47.872;12.014;2023-05-14T18:02:37;6.72;;;5.30;;
23624;SDS011;11989;47.872;12.014;2023-05-14T18:05:03;8.27;;;5.47;;
23624;SDS011;11989;47.872;12.014;2023-05-14T18:07:30;8.45;;;7.22;;
23624;SDS011;11989;47.872;12.014;2023-05-14T18:09:56;7.05;;;5.25;;
23624;SDS011;11989;47.872;12.014;2023-05-14T18:12:22;8.85;;;6.20;;
23624;SDS011;11989;47.872;12.014;2023-05-14T18:14:51;9.18;;;7.82;;
23624;SDS011;11989;47.872;12.014;2023-05-14T18:17:17;11.20;;;9.02;;
23624;SDS011;11989;47.872;12.014;2023-05-14T18:19:43;15.05;;;10.90;;
23624;SDS011;11989;47.872;12.014;2023-05-14T18:22:09;16.75;;;14.13;;
23624;SDS011;11989;47.872;12.014;2023-05-14T18:24:35;23.73;;;17.17;;
23624;SDS011;11989;47.872;12.014;2023-05-14T18:27:01;25.83;;;15.48;;
23624;SDS011;11989;47.872;12.014;2023-05-14T18:29:27;146.90;;;61.33;;
23624;SDS011;11989;47.872;12.014;2023-05-14T18:31:53;57.58;;;29.05;;
23624;SDS011;11989;47.872;12.014;2023-05-14T18:34:19;17.75;;;11.88;;
23624;SDS011;11989;47.872;12.014;2023-05-14T18:36:45;15.32;;;11.27;;
23624;SDS011;11989;47.872;12.014;2023-05-14T18:39:11;10.55;;;9.27;;
23624;SDS011;11989;47.872;12.014;2023-05-14T18:41:37;12.80;;;10.48;;
23624;SDS011;11989;47.872;12.014;2023-05-14T18:44:03;11.65;;;10.25;;
23624;SDS011;11989;47.872;12.014;2023-05-14T18:46:29;11.45;;;10.02;;
23624;SDS011;11989;47.872;12.014;2023-05-14T18:48:55;11.60;;;9.40;;
23624;SDS011;11989;47.872;12.014;2023-05-14T18:51:21;9.65;;;8.20;;
23624;SDS011;11989;47.872;12.014;2023-05-14T18:53:47;12.85;;;8.35;;
23624;SDS011;11989;47.872;12.014;2023-05-14T18:56:13;10.15;;;8.13;;
23624;SDS011;11989;47.872;12.014;2023-05-14T18:58:39;11.82;;;8.30;;
23624;SDS011;11989;47.872;12.014;2023-05-14T19:01:06;11.25;;;8.48;;
23624;SDS011;11989;47.872;12.014;2023-05-14T19:03:32;11.23;;;8.18;;